Gloucester, MA

8:48 PM EST on November 24, 2014 (GMT -0500)
Washington St | Change Station
CLOSE
Current Station
Personal Weather Station
Location: Gloucester, MA
Elevation: 39 ft
Nearby Weather Stations

Elev 39 ft 42.63 °N, 70.68 °W | Updated 2 seconds ago

Clear
Clear
57.9 °F
Feels Like 57.9 °F
N
2.0
Wind Variable Wind from SE
Gusts 6.0 mph

Today
High -- | Low -- °F
--% Chance of Precip.
Yesterday
High -- | Low -- °F
Precip. -- in
6:45 AM 4:13 PM
Waxing Crescent, 8% visible
Pressure 29.61 in
Visibility 10.0 miles
Clouds Few 3300 ft
Dew Point 55 °F
Humidity 91%
Rainfall 0.30 in
Snow Depth Not available.
UV 0 out of 12
Pollen .10 out of 12
Air Quality Not available.
Flu Activity Not available.
METAR KBVY 250053Z AUTO 22013G23KT 10SM FEW033 17/13 A2962 RMK AO2 SLP025 T01720133

More Conditions Fewer Conditions

Pressure 29.61 in
Visibility 10.0 miles
Clouds Few 3300 ft
Dew Point 55 °F
Humidity 91%
Rainfall 0.30 in
Snow Depth Not available.
UV 0 out of 12
Pollen .10 out of 12
Air Quality Not available.
Flu Activity Not available.
METAR KBVY 250053Z AUTO 22013G23KT 10SM FEW033 17/13 A2962 RMK AO2 SLP025 T01720133

More Conditions Fewer Conditions

10-Day Weather Forecast

Almanac

Astronomy

Nov. 24, 2014 Rise Set
Actual Time
Civil Twilight
Nautical Twilight
Astronomical Twilight
Moon
Length of Visible Light
Length of Day
Tomorrow will be .
, % of the Moon is Illuminated

Today's Extremes

State Highs State Lows

Community

WunderPhotos

Upload Photos

1,773,459 photos uploaded!

WunderBlogs® & News

Nearby

Air Quality

  Air Quality AQ Index Pollutant
Not available.

Snow Depth

Station Depth Elevation

Earthquake Activity

City Distance Mag. Time & Date
Minimum magnitude displayed is 2.5.

Coastal Water Temperatures

Place Temperature

Nearby Weather Stations